createdAt,value
2023-10-19T06:34:45.284Z,7.00
2023-10-19T06:37:14.588Z,7.10
2023-10-19T06:39:43.331Z,7.10
2023-10-19T06:42:15.343Z,7.10
2023-10-19T06:44:45.091Z,7.00
2023-10-19T06:47:14.895Z,7.10
2023-10-19T06:49:45.367Z,7.10
2023-10-19T06:52:14.648Z,7.10
2023-10-19T06:54:43.666Z,7.10
2023-10-19T06:57:13.689Z,7.10
2023-10-19T06:59:42.343Z,7.10
2023-10-19T07:02:13.747Z,7.10
2023-10-19T07:04:43.567Z,7.10
2023-10-19T07:07:15.181Z,7.10
2023-10-19T07:09:44.211Z,7.10
2023-10-19T07:12:13.329Z,7.10
2023-10-19T07:14:42.581Z,7.10
2023-10-19T07:17:11.422Z,7.20
2023-10-19T07:19:40.299Z,7.20
2023-10-19T07:22:11.254Z,7.20
2023-10-19T07:24:42.001Z,7.30
2023-10-19T07:27:34.460Z,7.30
2023-10-19T07:30:10.794Z,7.30
2023-10-19T07:32:40.483Z,7.30
2023-10-19T07:35:09.827Z,7.30
2023-10-19T07:37:39.674Z,7.30
2023-10-19T07:40:15.427Z,7.30
2023-10-19T07:42:44.947Z,7.40
2023-10-19T07:45:14.133Z,7.40
2023-10-19T07:47:43.387Z,7.30
2023-10-19T07:50:17.435Z,7.40
2023-10-19T07:52:47.783Z,7.40
2023-10-19T07:55:18.289Z,7.40
2023-10-19T07:57:47.478Z,7.40
2023-10-19T08:00:16.681Z,7.40
2023-10-19T08:02:47.155Z,7.40
2023-10-19T08:05:16.084Z,7.50
2023-10-19T08:07:45.581Z,7.40
2023-10-19T08:10:14.487Z,7.40
2023-10-19T08:12:45.619Z,7.40
2023-10-19T08:15:16.655Z,7.50
2023-10-19T08:17:46.430Z,7.50
2023-10-19T08:20:23.913Z,7.50
2023-10-19T08:22:53.365Z,7.50
2023-10-19T08:25:22.772Z,7.50
2023-10-19T08:27:55.432Z,7.50
2023-10-19T08:30:27.163Z,7.50
2023-10-19T08:32:59.448Z,7.50
2023-10-19T08:35:29.009Z,7.50
2023-10-19T08:37:59.183Z,7.50
2023-10-19T08:40:28.960Z,7.50
2023-10-19T08:43:00.363Z,7.60
2023-10-19T08:45:30.203Z,7.50
2023-10-19T08:48:01.003Z,7.50
2023-10-19T08:50:31.032Z,7.60
2023-10-19T08:53:00.438Z,7.60
2023-10-19T08:55:45.971Z,7.60
2023-10-19T08:58:20.822Z,7.50
2023-10-19T09:00:52.848Z,7.60
2023-10-19T09:03:23.554Z,7.60
2023-10-19T09:05:52.807Z,7.70
2023-10-19T09:08:24.217Z,7.70
2023-10-19T09:10:54.886Z,7.80
2023-10-19T09:13:26.429Z,7.90
2023-10-19T09:15:57.267Z,7.90
2023-10-19T09:18:29.768Z,7.90
2023-10-19T09:21:08.996Z,7.90
2023-10-19T09:23:38.594Z,8.00
2023-10-19T09:26:09.047Z,8.00
2023-10-19T09:28:40.260Z,8.00
2023-10-19T09:31:11.668Z,8.00
2023-10-19T09:33:42.518Z,8.00
2023-10-19T09:36:15.240Z,7.90
2023-10-19T09:38:50.136Z,7.90
2023-10-19T09:41:20.074Z,7.90
2023-10-19T09:43:52.474Z,7.90
2023-10-19T09:46:23.640Z,7.90
2023-10-19T09:48:53.420Z,7.90
2023-10-19T09:51:24.112Z,7.90
2023-10-19T09:53:56.051Z,8.00
2023-10-19T09:56:28.928Z,8.10
2023-10-19T09:59:00.455Z,8.10
2023-10-19T10:01:29.832Z,8.30
2023-10-19T10:04:01.272Z,8.50
2023-10-19T10:06:30.958Z,8.70
2023-10-19T10:09:01.836Z,8.90
2023-10-19T10:11:30.564Z,9.10
2023-10-19T10:14:01.630Z,9.30
2023-10-19T10:16:31.332Z,9.40
2023-10-19T10:19:01.739Z,9.50
2023-10-19T10:21:31.296Z,9.60
2023-10-19T10:24:01.646Z,9.60
2023-10-19T10:26:36.706Z,9.60
2023-10-19T10:29:21.100Z,9.60
2023-10-19T10:31:51.434Z,9.80
2023-10-19T10:34:35.349Z,9.90
2023-10-19T10:37:05.331Z,10.00
2023-10-19T10:39:36.886Z,9.90
2023-10-19T10:42:07.255Z,9.90
2023-10-19T10:44:40.313Z,9.90
2023-10-19T10:47:11.605Z,9.90
2023-10-19T10:49:53.168Z,10.00
2023-10-19T10:52:31.760Z,10.00
2023-10-19T10:55:01.284Z,10.10
2023-10-19T10:57:33.421Z,10.10
2023-10-19T11:00:06.528Z,10.10
2023-10-19T11:02:37.186Z,10.10
2023-10-19T11:05:06.874Z,10.10
2023-10-19T11:07:35.663Z,10.00
2023-10-19T11:10:04.775Z,10.00
2023-10-19T11:12:33.617Z,9.90
2023-10-19T11:15:10.858Z,9.90
2023-10-19T11:17:47.213Z,9.90
2023-10-19T11:20:23.687Z,9.80
2023-10-19T11:22:53.162Z,9.60
2023-10-19T11:25:22.929Z,9.60
2023-10-19T11:27:52.787Z,9.60
2023-10-19T11:30:26.101Z,9.60
2023-10-19T11:32:59.389Z,9.60
2023-10-19T11:35:28.794Z,9.60
2023-10-19T11:38:01.697Z,9.50
2023-10-19T11:40:30.998Z,9.50
2023-10-19T11:43:01.928Z,9.50
2023-10-19T11:45:31.833Z,9.60
2023-10-19T11:48:03.042Z,9.60
2023-10-19T11:50:31.922Z,9.60
2023-10-19T11:53:01.425Z,9.70
2023-10-19T11:55:30.646Z,9.70
2023-10-19T11:57:59.289Z,9.80
2023-10-19T12:00:35.165Z,9.90
2023-10-19T12:03:06.142Z,9.90
2023-10-19T12:05:38.480Z,9.70
2023-10-19T12:08:08.314Z,9.80
2023-10-19T12:10:38.097Z,9.80
2023-10-19T12:13:09.620Z,9.80
2023-10-19T12:15:38.344Z,9.60
2023-10-19T12:18:09.774Z,9.60
2023-10-19T12:20:39.019Z,9.40
2023-10-19T12:23:07.817Z,9.60
2023-10-19T12:25:53.998Z,9.70
2023-10-19T12:28:26.368Z,9.70
2023-10-19T12:30:55.810Z,9.70
2023-10-19T12:33:28.045Z,9.60
2023-10-19T12:35:58.686Z,9.60
2023-10-19T12:38:28.690Z,9.50
2023-10-19T12:40:57.425Z,9.50
2023-10-19T12:43:26.772Z,9.60
2023-10-19T12:45:57.174Z,9.60
2023-10-19T12:48:31.816Z,9.60
2023-10-19T12:51:00.557Z,9.70
2023-10-19T12:53:29.298Z,9.80
2023-10-19T12:55:58.030Z,9.80
2023-10-19T12:58:28.797Z,9.70
2023-10-19T13:00:58.509Z,9.60
2023-10-19T13:03:32.654Z,9.70
2023-10-19T13:06:05.271Z,9.70
2023-10-19T13:08:33.906Z,9.80
2023-10-19T13:11:14.398Z,9.90
2023-10-19T13:13:46.957Z,9.90
2023-10-19T13:16:16.001Z,9.90
2023-10-19T13:18:46.980Z,10.00
2023-10-19T13:21:18.664Z,10.00
2023-10-19T13:23:47.647Z,10.10
2023-10-19T13:26:19.706Z,10.10
2023-10-19T13:28:50.229Z,10.20
2023-10-19T13:31:20.791Z,10.20
2023-10-19T13:33:50.981Z,10.40
2023-10-19T13:36:20.697Z,10.50
2023-10-19T13:38:49.657Z,10.70
2023-10-19T13:41:18.575Z,10.80
2023-10-19T13:43:51.463Z,10.80
2023-10-19T13:46:20.446Z,10.80
2023-10-19T13:48:50.678Z,10.70
2023-10-19T13:51:20.715Z,10.70
2023-10-19T13:53:51.215Z,10.70
2023-10-19T13:56:20.482Z,10.60
2023-10-19T13:58:49.852Z,10.60
2023-10-19T14:01:19.308Z,10.70
2023-10-19T14:03:48.425Z,10.60
2023-10-19T14:06:19.269Z,10.60
2023-10-19T14:11:17.880Z,10.30
2023-10-19T14:13:46.994Z,10.20
2023-10-19T14:16:16.057Z,10.20
2023-10-19T14:18:45.151Z,10.20
2023-10-19T14:21:15.371Z,10.20
2023-10-19T14:23:46.810Z,10.20
2023-10-19T14:26:16.517Z,10.30
2023-10-19T14:28:45.444Z,10.30
2023-10-19T14:31:15.144Z,10.40
2023-10-19T14:33:44.115Z,10.40
2023-10-19T14:36:14.037Z,10.50
2023-10-19T14:38:45.383Z,10.60
2023-10-19T14:41:16.743Z,10.60
2023-10-19T14:43:45.508Z,10.60
2023-10-19T14:46:14.512Z,10.60
2023-10-19T14:48:43.370Z,10.60
2023-10-19T14:51:13.046Z,10.60
2023-10-19T14:53:42.806Z,10.50
2023-10-19T14:56:11.618Z,10.50
2023-10-19T14:58:42.462Z,10.30
2023-10-19T15:01:16.411Z,10.20
2023-10-19T15:03:45.152Z,10.20
2023-10-19T15:06:15.715Z,10.20
2023-10-19T15:08:44.548Z,10.20
2023-10-19T15:11:13.614Z,10.20
2023-10-19T15:13:43.889Z,10.10
2023-10-19T15:16:13.774Z,10.20
2023-10-19T15:18:42.872Z,10.10
2023-10-19T15:21:12.464Z,10.10
2023-10-19T15:23:42.432Z,10.10
2023-10-19T15:26:11.135Z,10.10
2023-10-19T15:28:39.898Z,10.00
2023-10-19T15:31:10.042Z,10.00
2023-10-19T15:33:39.102Z,10.00
2023-10-19T15:36:07.913Z,9.90
2023-10-19T15:38:36.786Z,9.90
2023-10-19T15:41:05.761Z,9.90
2023-10-19T15:43:34.597Z,9.80
2023-10-19T15:46:04.446Z,9.80
2023-10-19T15:48:36.587Z,9.80
2023-10-19T15:51:07.422Z,9.70
2023-10-19T15:53:36.242Z,9.70
2023-10-19T15:56:05.682Z,9.70
2023-10-19T15:58:34.436Z,9.60
2023-10-19T16:01:05.149Z,9.60
2023-10-19T16:03:38.310Z,9.60
2023-10-19T16:06:08.105Z,9.60
2023-10-19T16:08:38.445Z,9.50
2023-10-19T16:11:08.405Z,9.50
2023-10-19T16:13:37.603Z,9.50
2023-10-19T16:16:08.092Z,9.50
2023-10-19T16:18:38.949Z,9.40
2023-10-19T16:21:08.406Z,9.40
2023-10-19T16:23:37.211Z,9.40
2023-10-19T16:26:06.378Z,9.30
2023-10-19T16:28:35.339Z,9.30
2023-10-19T16:31:04.940Z,9.20
2023-10-19T16:33:34.328Z,9.20
2023-10-19T16:36:04.917Z,9.10
2023-10-19T16:38:33.800Z,9.10
2023-10-19T16:41:03.355Z,9.10
2023-10-19T16:43:32.177Z,9.10
2023-10-19T16:46:01.187Z,9.00
2023-10-19T16:48:30.242Z,9.10
2023-10-19T16:51:02.491Z,9.10
2023-10-19T16:53:33.991Z,9.10
2023-10-19T16:56:03.442Z,9.00
2023-10-19T16:58:32.261Z,9.00
2023-10-19T17:01:01.057Z,9.00
2023-10-19T17:03:30.530Z,9.00
2023-10-19T17:05:59.552Z,8.90
2023-10-19T17:08:28.713Z,8.90
2023-10-19T17:11:03.099Z,8.90
2023-10-19T17:13:32.654Z,8.90
2023-10-19T17:16:01.620Z,8.90
2023-10-19T17:18:31.317Z,8.90
2023-10-19T17:21:00.675Z,8.80
2023-10-19T17:23:29.669Z,8.80
2023-10-19T17:25:59.806Z,8.80
2023-10-19T17:28:28.681Z,8.90
2023-10-19T17:30:57.602Z,8.90
2023-10-19T17:33:27.670Z,8.90
2023-10-19T17:35:56.458Z,8.80
2023-10-19T17:38:25.625Z,8.90
2023-10-19T17:40:54.330Z,8.80
2023-10-19T17:43:25.051Z,8.80
2023-10-19T17:45:53.871Z,8.80
2023-10-19T17:48:22.668Z,8.70
2023-10-19T17:50:51.715Z,8.80
2023-10-19T17:53:20.560Z,8.80
2023-10-19T17:55:49.571Z,8.70
2023-10-19T17:58:18.904Z,8.70
2023-10-19T18:00:51.047Z,8.70
2023-10-19T18:03:21.512Z,8.70
2023-10-19T18:05:50.393Z,8.70
2023-10-19T18:08:19.302Z,8.70
2023-10-19T18:10:48.456Z,8.70
2023-10-19T18:13:17.754Z,8.70
2023-10-19T18:15:50.788Z,8.80
2023-10-19T18:18:21.441Z,8.80
2023-10-19T18:20:50.611Z,8.80
2023-10-19T18:23:19.494Z,8.80
2023-10-19T18:25:48.706Z,8.90
2023-10-19T18:28:17.747Z,8.90
2023-10-19T18:30:46.699Z,8.80
2023-10-19T18:33:15.682Z,8.80
2023-10-19T18:35:46.271Z,8.80
2023-10-19T18:38:15.311Z,8.80
2023-10-19T18:40:44.560Z,8.70
2023-10-19T18:43:13.523Z,8.70
2023-10-19T18:45:42.210Z,8.70
2023-10-19T18:48:11.896Z,8.60
2023-10-19T18:50:40.744Z,8.60
2023-10-19T18:53:10.949Z,8.50
2023-10-19T18:55:40.374Z,8.50
2023-10-19T18:58:09.905Z,8.50
2023-10-19T19:00:39.795Z,8.50
2023-10-19T19:03:09.412Z,8.90
2023-10-19T19:05:40.537Z,8.90
2023-10-19T19:08:10.876Z,8.90
2023-10-19T19:10:39.563Z,8.80
2023-10-19T19:13:08.456Z,8.80
2023-10-19T19:15:37.123Z,8.80
2023-10-19T19:18:06.956Z,8.80
2023-10-19T19:20:36.007Z,8.80
2023-10-19T19:23:05.056Z,8.80
2023-10-19T19:25:35.123Z,8.80
2023-10-19T19:28:03.997Z,8.80
2023-10-19T19:30:32.816Z,8.80
2023-10-19T19:33:02.385Z,8.80
2023-10-19T19:35:31.331Z,8.80
2023-10-19T19:38:00.523Z,8.70
2023-10-19T19:40:31.374Z,8.70
2023-10-19T19:43:01.096Z,8.80
2023-10-19T19:45:29.382Z,8.80
2023-10-19T19:48:05.025Z,8.80
2023-10-19T19:50:33.532Z,8.80
2023-10-19T19:53:01.967Z,8.80
2023-10-19T19:55:30.531Z,8.80
2023-10-19T19:57:59.004Z,8.80
2023-10-19T20:00:31.767Z,8.90
2023-10-19T20:03:01.465Z,8.80
2023-10-19T20:05:32.162Z,8.90
2023-10-19T20:08:00.406Z,9.00
2023-10-19T20:10:38.613Z,9.00
2023-10-19T20:13:07.553Z,9.00
2023-10-19T20:15:38.437Z,9.00
2023-10-19T20:18:08.729Z,9.00
2023-10-19T20:20:37.334Z,9.00
2023-10-19T20:23:05.912Z,9.00
2023-10-19T20:25:34.396Z,9.00
2023-10-19T20:28:05.546Z,9.00
2023-10-19T20:30:35.193Z,9.00
2023-10-19T20:33:05.864Z,9.00
2023-10-19T20:35:35.263Z,9.00
2023-10-19T20:38:06.471Z,9.00
2023-10-19T20:40:36.706Z,9.10
2023-10-19T20:43:10.737Z,9.10
2023-10-19T20:45:39.170Z,9.10
2023-10-19T20:48:09.734Z,9.20
2023-10-19T20:50:38.202Z,9.10
2023-10-19T20:53:06.563Z,9.20
2023-10-19T20:55:35.638Z,9.20
2023-10-19T20:58:04.653Z,9.20
2023-10-19T21:00:32.781Z,9.20
2023-10-19T21:03:01.139Z,9.30
2023-10-19T21:05:31.399Z,9.30
2023-10-19T21:07:59.898Z,9.40
2023-10-19T21:10:28.217Z,9.40
2023-10-19T21:12:56.639Z,9.40
2023-10-19T21:15:26.097Z,9.40
2023-10-19T21:17:54.762Z,9.30
2023-10-19T21:20:23.393Z,9.30
2023-10-19T21:22:54.030Z,9.30
2023-10-19T21:25:25.688Z,9.30
2023-10-19T21:27:55.786Z,9.30
2023-10-19T21:30:24.068Z,9.20
2023-10-19T21:32:52.336Z,9.20
2023-10-19T21:35:21.405Z,9.30
2023-10-19T21:37:49.783Z,9.20
2023-10-19T21:40:19.491Z,9.30
2023-10-19T21:42:48.182Z,9.20
2023-10-19T21:45:17.104Z,9.20
2023-10-19T21:47:45.566Z,9.20
2023-10-19T21:50:13.924Z,9.20
2023-10-19T21:52:42.643Z,9.20
2023-10-19T21:55:12.128Z,9.20
2023-10-19T21:57:42.905Z,9.20
2023-10-19T22:00:15.734Z,9.20
2023-10-19T22:03:00.208Z,9.20
2023-10-19T22:05:34.096Z,9.20
2023-10-19T22:08:03.034Z,9.20
2023-10-19T22:10:31.400Z,9.20
2023-10-19T22:13:01.914Z,9.20
2023-10-19T22:15:30.806Z,9.20
2023-10-19T22:17:59.078Z,9.20
2023-10-19T22:20:27.333Z,9.20
2023-10-19T22:22:55.636Z,9.30
2023-10-19T22:25:23.945Z,9.20
2023-10-19T22:27:53.119Z,9.30
2023-10-19T22:30:23.366Z,9.30
2023-10-19T22:32:52.260Z,9.30
2023-10-19T22:35:21.055Z,9.30
2023-10-19T22:37:49.539Z,9.20
2023-10-19T22:40:18.853Z,9.30
2023-10-19T22:42:47.044Z,9.20
2023-10-19T22:45:17.089Z,9.20
2023-10-19T22:47:47.035Z,9.20
2023-10-19T22:50:18.093Z,9.20
2023-10-19T22:52:46.950Z,9.20
2023-10-19T22:55:15.174Z,9.10
2023-10-19T22:57:43.652Z,9.20
2023-10-19T23:00:16.580Z,9.20
2023-10-19T23:02:45.514Z,9.20
2023-10-19T23:05:15.772Z,9.20
2023-10-19T23:07:44.128Z,9.30
2023-10-19T23:10:17.695Z,9.30
2023-10-19T23:12:46.188Z,9.30
2023-10-19T23:15:17.165Z,9.20
2023-10-19T23:17:50.171Z,9.30
2023-10-19T23:20:28.308Z,9.30
2023-10-19T23:22:58.116Z,9.30
2023-10-19T23:25:26.383Z,9.30
2023-10-19T23:27:55.994Z,9.30
2023-10-19T23:30:24.710Z,9.30
2023-10-19T23:32:53.382Z,9.40
2023-10-19T23:35:23.033Z,9.30
2023-10-19T23:37:51.348Z,9.40
2023-10-19T23:40:19.511Z,9.30
2023-10-19T23:42:47.795Z,9.30
2023-10-19T23:45:16.018Z,9.30
2023-10-19T23:47:45.171Z,9.30
2023-10-19T23:50:15.032Z,9.30
2023-10-19T23:52:44.710Z,9.40
2023-10-19T23:55:14.521Z,9.30
2023-10-19T23:57:44.012Z,9.40
